sensor_id;sensor_type;location;lat;lon;timestamp;P1;durP1;ratioP1;P2;durP2;ratioP2
21386;SDS011;10854;45.922;6.716;2024-02-23T00:00:37;1.50;;;1.00;;
21386;SDS011;10854;45.922;6.716;2024-02-23T00:03:06;1.83;;;1.20;;
21386;SDS011;10854;45.922;6.716;2024-02-23T00:05:36;2.37;;;1.00;;
21386;SDS011;10854;45.922;6.716;2024-02-23T00:08:06;3.30;;;0.97;;
21386;SDS011;10854;45.922;6.716;2024-02-23T00:10:36;1.70;;;1.00;;
21386;SDS011;10854;45.922;6.716;2024-02-23T00:13:05;0.77;;;0.73;;
21386;SDS011;10854;45.922;6.716;2024-02-23T00:15:34;0.50;;;0.50;;
21386;SDS011;10854;45.922;6.716;2024-02-23T00:18:03;0.83;;;0.53;;
21386;SDS011;10854;45.922;6.716;2024-02-23T00:20:32;0.87;;;0.60;;
21386;SDS011;10854;45.922;6.716;2024-02-23T00:23:01;1.60;;;1.10;;
21386;SDS011;10854;45.922;6.716;2024-02-23T00:25:30;2.80;;;1.80;;
21386;SDS011;10854;45.922;6.716;2024-02-23T00:27:59;4.97;;;2.50;;
21386;SDS011;10854;45.922;6.716;2024-02-23T00:30:28;0.73;;;0.70;;
21386;SDS011;10854;45.922;6.716;2024-02-23T00:32:57;1.87;;;1.40;;
21386;SDS011;10854;45.922;6.716;2024-02-23T00:35:25;1.20;;;1.10;;
21386;SDS011;10854;45.922;6.716;2024-02-23T00:37:54;1.13;;;0.90;;
21386;SDS011;10854;45.922;6.716;2024-02-23T00:40:23;1.20;;;0.80;;
21386;SDS011;10854;45.922;6.716;2024-02-23T00:42:52;1.90;;;1.40;;
21386;SDS011;10854;45.922;6.716;2024-02-23T00:45:21;1.37;;;1.10;;
21386;SDS011;10854;45.922;6.716;2024-02-23T00:47:50;1.83;;;1.10;;
21386;SDS011;10854;45.922;6.716;2024-02-23T00:50:18;3.23;;;1.80;;
21386;SDS011;10854;45.922;6.716;2024-02-23T00:52:47;3.93;;;1.13;;
21386;SDS011;10854;45.922;6.716;2024-02-23T00:55:15;2.27;;;1.30;;
21386;SDS011;10854;45.922;6.716;2024-02-23T00:57:44;7.13;;;3.63;;
21386;SDS011;10854;45.922;6.716;2024-02-23T01:00:13;3.73;;;2.27;;
21386;SDS011;10854;45.922;6.716;2024-02-23T01:02:42;4.03;;;2.10;;
21386;SDS011;10854;45.922;6.716;2024-02-23T01:05:11;2.93;;;1.70;;
21386;SDS011;10854;45.922;6.716;2024-02-23T01:07:42;2.10;;;1.33;;
21386;SDS011;10854;45.922;6.716;2024-02-23T01:10:11;1.73;;;0.70;;
21386;SDS011;10854;45.922;6.716;2024-02-23T01:12:40;1.10;;;0.90;;
21386;SDS011;10854;45.922;6.716;2024-02-23T01:15:08;1.10;;;1.00;;
21386;SDS011;10854;45.922;6.716;2024-02-23T01:17:37;1.27;;;1.13;;
21386;SDS011;10854;45.922;6.716;2024-02-23T01:20:05;1.50;;;1.27;;
21386;SDS011;10854;45.922;6.716;2024-02-23T01:22:34;1.00;;;0.90;;
21386;SDS011;10854;45.922;6.716;2024-02-23T01:25:02;1.50;;;1.00;;
21386;SDS011;10854;45.922;6.716;2024-02-23T01:27:31;0.90;;;0.80;;
21386;SDS011;10854;45.922;6.716;2024-02-23T01:30:00;1.10;;;1.00;;
21386;SDS011;10854;45.922;6.716;2024-02-23T01:32:28;1.60;;;1.50;;
21386;SDS011;10854;45.922;6.716;2024-02-23T01:34:58;1.77;;;1.40;;
21386;SDS011;10854;45.922;6.716;2024-02-23T01:37:27;1.80;;;1.00;;
21386;SDS011;10854;45.922;6.716;2024-02-23T01:39:56;1.17;;;0.80;;
21386;SDS011;10854;45.922;6.716;2024-02-23T01:42:24;1.87;;;0.80;;
21386;SDS011;10854;45.922;6.716;2024-02-23T01:44:53;1.10;;;0.90;;
21386;SDS011;10854;45.922;6.716;2024-02-23T01:47:24;2.33;;;1.10;;
21386;SDS011;10854;45.922;6.716;2024-02-23T01:49:53;2.30;;;0.90;;
21386;SDS011;10854;45.922;6.716;2024-02-23T01:52:23;0.80;;;0.80;;
21386;SDS011;10854;45.922;6.716;2024-02-23T01:54:51;0.87;;;0.87;;
21386;SDS011;10854;45.922;6.716;2024-02-23T01:57:21;1.40;;;1.00;;
21386;SDS011;10854;45.922;6.716;2024-02-23T01:59:53;1.33;;;1.17;;
21386;SDS011;10854;45.922;6.716;2024-02-23T02:02:22;0.83;;;0.83;;
21386;SDS011;10854;45.922;6.716;2024-02-23T02:04:51;1.50;;;1.10;;
21386;SDS011;10854;45.922;6.716;2024-02-23T02:07:19;2.30;;;1.60;;
21386;SDS011;10854;45.922;6.716;2024-02-23T02:09:50;2.27;;;2.07;;
21386;SDS011;10854;45.922;6.716;2024-02-23T02:12:28;2.23;;;1.93;;
21386;SDS011;10854;45.922;6.716;2024-02-23T02:14:57;1.77;;;1.40;;
21386;SDS011;10854;45.922;6.716;2024-02-23T02:17:28;1.07;;;1.07;;
21386;SDS011;10854;45.922;6.716;2024-02-23T02:19:58;1.47;;;1.20;;
21386;SDS011;10854;45.922;6.716;2024-02-23T02:22:34;1.30;;;1.20;;
21386;SDS011;10854;45.922;6.716;2024-02-23T02:25:05;1.60;;;1.50;;
21386;SDS011;10854;45.922;6.716;2024-02-23T02:27:34;5.13;;;4.13;;
21386;SDS011;10854;45.922;6.716;2024-02-23T02:30:02;3.40;;;2.20;;
21386;SDS011;10854;45.922;6.716;2024-02-23T02:32:31;1.73;;;1.63;;
21386;SDS011;10854;45.922;6.716;2024-02-23T02:35:01;2.10;;;1.90;;
21386;SDS011;10854;45.922;6.716;2024-02-23T02:37:30;2.00;;;1.50;;
21386;SDS011;10854;45.922;6.716;2024-02-23T02:39:58;1.30;;;1.20;;
21386;SDS011;10854;45.922;6.716;2024-02-23T02:42:27;1.10;;;1.00;;
21386;SDS011;10854;45.922;6.716;2024-02-23T02:44:57;1.07;;;1.00;;
21386;SDS011;10854;45.922;6.716;2024-02-23T02:47:25;1.40;;;0.90;;
21386;SDS011;10854;45.922;6.716;2024-02-23T02:49:54;0.87;;;0.87;;
21386;SDS011;10854;45.922;6.716;2024-02-23T02:52:23;1.90;;;1.00;;
21386;SDS011;10854;45.922;6.716;2024-02-23T02:54:53;0.90;;;0.90;;
21386;SDS011;10854;45.922;6.716;2024-02-23T02:57:22;1.20;;;1.10;;
21386;SDS011;10854;45.922;6.716;2024-02-23T02:59:51;3.27;;;2.70;;
21386;SDS011;10854;45.922;6.716;2024-02-23T03:02:21;1.50;;;1.40;;
21386;SDS011;10854;45.922;6.716;2024-02-23T03:04:50;1.93;;;1.20;;
21386;SDS011;10854;45.922;6.716;2024-02-23T03:07:20;1.30;;;1.20;;
21386;SDS011;10854;45.922;6.716;2024-02-23T03:09:49;1.27;;;1.17;;
21386;SDS011;10854;45.922;6.716;2024-02-23T03:12:18;1.00;;;0.90;;
21386;SDS011;10854;45.922;6.716;2024-02-23T03:14:46;1.27;;;1.17;;
21386;SDS011;10854;45.922;6.716;2024-02-23T03:17:15;1.10;;;1.00;;
21386;SDS011;10854;45.922;6.716;2024-02-23T03:19:43;2.00;;;1.00;;
21386;SDS011;10854;45.922;6.716;2024-02-23T03:22:12;1.10;;;1.00;;
21386;SDS011;10854;45.922;6.716;2024-02-23T03:24:40;1.20;;;1.00;;
21386;SDS011;10854;45.922;6.716;2024-02-23T03:27:09;1.07;;;1.00;;
21386;SDS011;10854;45.922;6.716;2024-02-23T03:29:38;1.40;;;1.30;;
21386;SDS011;10854;45.922;6.716;2024-02-23T03:32:07;1.33;;;1.17;;
21386;SDS011;10854;45.922;6.716;2024-02-23T03:34:35;1.07;;;0.90;;
21386;SDS011;10854;45.922;6.716;2024-02-23T03:37:04;1.83;;;1.20;;
21386;SDS011;10854;45.922;6.716;2024-02-23T03:39:32;1.40;;;1.20;;
21386;SDS011;10854;45.922;6.716;2024-02-23T03:42:03;3.60;;;1.80;;
21386;SDS011;10854;45.922;6.716;2024-02-23T03:44:33;1.90;;;1.63;;
21386;SDS011;10854;45.922;6.716;2024-02-23T03:47:01;1.60;;;1.10;;
21386;SDS011;10854;45.922;6.716;2024-02-23T03:49:30;1.30;;;1.20;;
21386;SDS011;10854;45.922;6.716;2024-02-23T03:51:58;2.00;;;1.00;;
21386;SDS011;10854;45.922;6.716;2024-02-23T03:54:27;2.17;;;1.10;;
21386;SDS011;10854;45.922;6.716;2024-02-23T03:56:55;2.03;;;1.07;;
21386;SDS011;10854;45.922;6.716;2024-02-23T03:59:24;1.53;;;1.00;;
21386;SDS011;10854;45.922;6.716;2024-02-23T04:01:53;2.00;;;1.10;;
21386;SDS011;10854;45.922;6.716;2024-02-23T04:04:21;1.30;;;1.20;;
21386;SDS011;10854;45.922;6.716;2024-02-23T04:06:50;1.10;;;1.00;;
21386;SDS011;10854;45.922;6.716;2024-02-23T04:09:19;2.00;;;1.00;;
21386;SDS011;10854;45.922;6.716;2024-02-23T04:11:48;1.40;;;1.20;;
21386;SDS011;10854;45.922;6.716;2024-02-23T04:14:16;2.57;;;1.13;;
21386;SDS011;10854;45.922;6.716;2024-02-23T04:16:45;1.70;;;1.60;;
21386;SDS011;10854;45.922;6.716;2024-02-23T04:19:13;1.73;;;1.53;;
21386;SDS011;10854;45.922;6.716;2024-02-23T04:21:45;3.20;;;2.70;;
21386;SDS011;10854;45.922;6.716;2024-02-23T04:24:13;5.47;;;3.90;;
21386;SDS011;10854;45.922;6.716;2024-02-23T04:26:42;4.20;;;3.80;;
21386;SDS011;10854;45.922;6.716;2024-02-23T04:29:10;2.77;;;2.27;;
21386;SDS011;10854;45.922;6.716;2024-02-23T04:31:39;2.73;;;2.10;;
21386;SDS011;10854;45.922;6.716;2024-02-23T04:34:08;2.73;;;1.97;;
21386;SDS011;10854;45.922;6.716;2024-02-23T04:36:37;3.67;;;2.97;;
21386;SDS011;10854;45.922;6.716;2024-02-23T04:39:05;6.83;;;4.70;;
21386;SDS011;10854;45.922;6.716;2024-02-23T04:41:34;6.70;;;4.93;;
21386;SDS011;10854;45.922;6.716;2024-02-23T04:44:03;5.53;;;4.10;;
21386;SDS011;10854;45.922;6.716;2024-02-23T04:46:31;4.57;;;3.40;;
21386;SDS011;10854;45.922;6.716;2024-02-23T04:49:06;5.50;;;3.77;;
21386;SDS011;10854;45.922;6.716;2024-02-23T04:51:35;5.30;;;4.07;;
21386;SDS011;10854;45.922;6.716;2024-02-23T04:54:03;6.03;;;4.83;;
21386;SDS011;10854;45.922;6.716;2024-02-23T04:56:34;10.43;;;7.77;;
21386;SDS011;10854;45.922;6.716;2024-02-23T04:59:03;11.07;;;8.87;;
21386;SDS011;10854;45.922;6.716;2024-02-23T05:01:36;16.67;;;10.03;;
21386;SDS011;10854;45.922;6.716;2024-02-23T05:04:05;13.63;;;10.07;;
21386;SDS011;10854;45.922;6.716;2024-02-23T05:06:33;13.57;;;9.47;;
21386;SDS011;10854;45.922;6.716;2024-02-23T05:09:05;14.47;;;9.77;;
21386;SDS011;10854;45.922;6.716;2024-02-23T05:11:36;15.97;;;9.67;;
21386;SDS011;10854;45.922;6.716;2024-02-23T05:14:05;16.33;;;9.77;;
21386;SDS011;10854;45.922;6.716;2024-02-23T05:16:34;16.83;;;10.40;;
21386;SDS011;10854;45.922;6.716;2024-02-23T05:19:02;18.07;;;11.07;;
21386;SDS011;10854;45.922;6.716;2024-02-23T05:21:30;15.70;;;10.43;;
21386;SDS011;10854;45.922;6.716;2024-02-23T05:24:00;16.50;;;11.23;;
21386;SDS011;10854;45.922;6.716;2024-02-23T05:26:29;18.50;;;12.10;;
21386;SDS011;10854;45.922;6.716;2024-02-23T05:28:58;18.63;;;10.40;;
21386;SDS011;10854;45.922;6.716;2024-02-23T05:31:46;21.63;;;10.33;;
21386;SDS011;10854;45.922;6.716;2024-02-23T05:34:16;19.93;;;12.20;;
21386;SDS011;10854;45.922;6.716;2024-02-23T05:36:46;21.67;;;12.00;;
21386;SDS011;10854;45.922;6.716;2024-02-23T05:39:15;21.90;;;10.97;;
21386;SDS011;10854;45.922;6.716;2024-02-23T05:41:43;21.47;;;10.90;;
21386;SDS011;10854;45.922;6.716;2024-02-23T05:44:12;28.80;;;20.50;;
21386;SDS011;10854;45.922;6.716;2024-02-23T05:46:42;32.03;;;21.27;;
21386;SDS011;10854;45.922;6.716;2024-02-23T05:49:11;32.30;;;18.87;;
21386;SDS011;10854;45.922;6.716;2024-02-23T05:51:40;26.67;;;15.07;;
21386;SDS011;10854;45.922;6.716;2024-02-23T05:54:09;24.57;;;13.20;;
21386;SDS011;10854;45.922;6.716;2024-02-23T05:56:40;25.00;;;13.47;;
21386;SDS011;10854;45.922;6.716;2024-02-23T05:59:08;22.37;;;11.83;;
21386;SDS011;10854;45.922;6.716;2024-02-23T06:01:37;24.37;;;12.77;;
21386;SDS011;10854;45.922;6.716;2024-02-23T06:04:05;28.63;;;15.00;;
21386;SDS011;10854;45.922;6.716;2024-02-23T06:06:34;28.13;;;15.93;;
21386;SDS011;10854;45.922;6.716;2024-02-23T06:09:03;31.03;;;17.17;;
21386;SDS011;10854;45.922;6.716;2024-02-23T06:11:33;32.13;;;17.97;;
21386;SDS011;10854;45.922;6.716;2024-02-23T06:14:03;36.40;;;21.00;;
21386;SDS011;10854;45.922;6.716;2024-02-23T06:16:31;39.83;;;23.03;;
21386;SDS011;10854;45.922;6.716;2024-02-23T06:19:01;35.67;;;20.87;;
21386;SDS011;10854;45.922;6.716;2024-02-23T06:21:31;46.73;;;22.43;;
21386;SDS011;10854;45.922;6.716;2024-02-23T06:24:01;41.40;;;23.73;;
21386;SDS011;10854;45.922;6.716;2024-02-23T06:26:32;48.53;;;24.63;;
21386;SDS011;10854;45.922;6.716;2024-02-23T06:29:02;35.27;;;19.13;;
21386;SDS011;10854;45.922;6.716;2024-02-23T06:31:33;37.27;;;18.17;;
21386;SDS011;10854;45.922;6.716;2024-02-23T06:34:08;36.37;;;17.17;;
21386;SDS011;10854;45.922;6.716;2024-02-23T06:36:39;35.23;;;17.03;;
21386;SDS011;10854;45.922;6.716;2024-02-23T06:39:08;45.53;;;21.10;;
21386;SDS011;10854;45.922;6.716;2024-02-23T06:41:38;42.40;;;21.07;;
21386;SDS011;10854;45.922;6.716;2024-02-23T06:44:07;47.00;;;22.57;;
21386;SDS011;10854;45.922;6.716;2024-02-23T06:46:35;48.70;;;22.67;;
21386;SDS011;10854;45.922;6.716;2024-02-23T06:49:04;50.93;;;23.10;;
21386;SDS011;10854;45.922;6.716;2024-02-23T06:51:33;47.13;;;21.37;;
21386;SDS011;10854;45.922;6.716;2024-02-23T06:54:02;48.47;;;22.20;;
21386;SDS011;10854;45.922;6.716;2024-02-23T06:56:31;52.13;;;22.03;;
21386;SDS011;10854;45.922;6.716;2024-02-23T06:59:00;58.87;;;25.13;;
21386;SDS011;10854;45.922;6.716;2024-02-23T07:01:28;53.57;;;24.70;;
21386;SDS011;10854;45.922;6.716;2024-02-23T07:03:59;52.93;;;23.33;;
21386;SDS011;10854;45.922;6.716;2024-02-23T07:06:30;59.37;;;29.63;;
21386;SDS011;10854;45.922;6.716;2024-02-23T07:08:59;95.87;;;41.90;;
21386;SDS011;10854;45.922;6.716;2024-02-23T07:11:29;42.53;;;22.47;;
21386;SDS011;10854;45.922;6.716;2024-02-23T07:13:58;32.87;;;17.20;;
21386;SDS011;10854;45.922;6.716;2024-02-23T07:16:26;29.93;;;17.47;;
21386;SDS011;10854;45.922;6.716;2024-02-23T07:18:55;20.90;;;11.37;;
21386;SDS011;10854;45.922;6.716;2024-02-23T07:21:24;18.30;;;10.03;;
21386;SDS011;10854;45.922;6.716;2024-02-23T07:23:53;19.47;;;12.10;;
21386;SDS011;10854;45.922;6.716;2024-02-23T07:26:22;25.83;;;13.77;;
21386;SDS011;10854;45.922;6.716;2024-02-23T07:28:51;238.53;;;106.73;;
21386;SDS011;10854;45.922;6.716;2024-02-23T07:31:21;64.00;;;28.57;;
21386;SDS011;10854;45.922;6.716;2024-02-23T07:33:50;132.27;;;49.53;;
21386;SDS011;10854;45.922;6.716;2024-02-23T07:36:18;174.63;;;65.07;;
21386;SDS011;10854;45.922;6.716;2024-02-23T07:38:49;102.80;;;45.63;;
21386;SDS011;10854;45.922;6.716;2024-02-23T07:41:18;143.70;;;58.10;;
21386;SDS011;10854;45.922;6.716;2024-02-23T07:43:47;27.77;;;13.57;;
21386;SDS011;10854;45.922;6.716;2024-02-23T07:46:16;25.27;;;12.80;;
21386;SDS011;10854;45.922;6.716;2024-02-23T07:48:45;34.87;;;17.20;;
21386;SDS011;10854;45.922;6.716;2024-02-23T07:51:15;127.17;;;46.57;;
21386;SDS011;10854;45.922;6.716;2024-02-23T07:53:46;31.70;;;16.60;;
21386;SDS011;10854;45.922;6.716;2024-02-23T07:56:15;29.57;;;14.57;;
21386;SDS011;10854;45.922;6.716;2024-02-23T07:58:44;39.77;;;18.07;;
21386;SDS011;10854;45.922;6.716;2024-02-23T08:01:16;31.67;;;16.93;;
21386;SDS011;10854;45.922;6.716;2024-02-23T08:03:44;45.40;;;21.53;;
21386;SDS011;10854;45.922;6.716;2024-02-23T08:06:14;61.67;;;26.10;;
21386;SDS011;10854;45.922;6.716;2024-02-23T08:08:43;67.87;;;26.00;;
21386;SDS011;10854;45.922;6.716;2024-02-23T08:11:12;64.57;;;27.17;;
21386;SDS011;10854;45.922;6.716;2024-02-23T08:13:41;86.97;;;30.03;;
21386;SDS011;10854;45.922;6.716;2024-02-23T08:16:09;82.30;;;34.93;;
21386;SDS011;10854;45.922;6.716;2024-02-23T08:18:38;94.50;;;30.93;;
21386;SDS011;10854;45.922;6.716;2024-02-23T08:21:06;107.00;;;34.53;;
21386;SDS011;10854;45.922;6.716;2024-02-23T08:23:37;103.87;;;32.40;;
21386;SDS011;10854;45.922;6.716;2024-02-23T08:26:06;120.23;;;34.20;;
21386;SDS011;10854;45.922;6.716;2024-02-23T08:28:34;120.00;;;38.73;;
21386;SDS011;10854;45.922;6.716;2024-02-23T08:31:02;103.27;;;35.33;;
21386;SDS011;10854;45.922;6.716;2024-02-23T08:33:31;94.93;;;35.00;;
21386;SDS011;10854;45.922;6.716;2024-02-23T08:36:00;128.50;;;37.67;;
21386;SDS011;10854;45.922;6.716;2024-02-23T08:38:33;110.67;;;35.93;;
21386;SDS011;10854;45.922;6.716;2024-02-23T08:41:04;140.73;;;40.97;;
21386;SDS011;10854;45.922;6.716;2024-02-23T08:43:35;268.57;;;47.13;;
21386;SDS011;10854;45.922;6.716;2024-02-23T08:46:05;546.30;;;56.30;;
21386;SDS011;10854;45.922;6.716;2024-02-23T08:48:34;1012.40;;;100.33;;
21386;SDS011;10854;45.922;6.716;2024-02-23T08:51:03;1164.43;;;119.90;;
21386;SDS011;10854;45.922;6.716;2024-02-23T08:53:33;788.77;;;97.63;;
21386;SDS011;10854;45.922;6.716;2024-02-23T08:56:02;438.73;;;53.07;;
21386;SDS011;10854;45.922;6.716;2024-02-23T08:58:31;368.10;;;47.43;;
21386;SDS011;10854;45.922;6.716;2024-02-23T09:01:01;951.50;;;126.23;;
21386;SDS011;10854;45.922;6.716;2024-02-23T09:03:31;92.03;;;30.53;;
21386;SDS011;10854;45.922;6.716;2024-02-23T09:06:00;662.03;;;86.13;;
21386;SDS011;10854;45.922;6.716;2024-02-23T09:08:28;49.53;;;21.27;;
21386;SDS011;10854;45.922;6.716;2024-02-23T09:10:57;31.03;;;17.30;;
21386;SDS011;10854;45.922;6.716;2024-02-23T09:13:26;24.07;;;16.80;;
21386;SDS011;10854;45.922;6.716;2024-02-23T09:15:59;50.93;;;23.40;;
21386;SDS011;10854;45.922;6.716;2024-02-23T09:18:28;73.50;;;19.10;;
21386;SDS011;10854;45.922;6.716;2024-02-23T09:20:57;12.73;;;9.43;;
21386;SDS011;10854;45.922;6.716;2024-02-23T09:23:28;8.93;;;6.53;;
21386;SDS011;10854;45.922;6.716;2024-02-23T09:25:57;7.80;;;6.17;;
21386;SDS011;10854;45.922;6.716;2024-02-23T09:28:25;5.60;;;5.00;;
21386;SDS011;10854;45.922;6.716;2024-02-23T09:30:54;9.27;;;6.50;;
21386;SDS011;10854;45.922;6.716;2024-02-23T09:33:23;7.50;;;6.40;;
21386;SDS011;10854;45.922;6.716;2024-02-23T09:35:51;8.37;;;6.43;;
21386;SDS011;10854;45.922;6.716;2024-02-23T09:38:21;6.03;;;5.13;;
21386;SDS011;10854;45.922;6.716;2024-02-23T09:40:52;6.20;;;4.57;;
21386;SDS011;10854;45.922;6.716;2024-02-23T09:43:21;5.57;;;4.70;;
21386;SDS011;10854;45.922;6.716;2024-02-23T09:45:53;5.63;;;3.77;;
21386;SDS011;10854;45.922;6.716;2024-02-23T09:48:21;3.33;;;2.43;;
21386;SDS011;10854;45.922;6.716;2024-02-23T09:50:52;2.57;;;1.50;;
21386;SDS011;10854;45.922;6.716;2024-02-23T09:53:21;2.10;;;1.67;;
21386;SDS011;10854;45.922;6.716;2024-02-23T09:55:50;1.27;;;1.17;;
21386;SDS011;10854;45.922;6.716;2024-02-23T09:58:21;1.87;;;1.20;;
21386;SDS011;10854;45.922;6.716;2024-02-23T10:00:51;1.57;;;1.30;;
21386;SDS011;10854;45.922;6.716;2024-02-23T10:03:20;1.10;;;0.90;;
21386;SDS011;10854;45.922;6.716;2024-02-23T10:05:58;1.07;;;0.90;;
21386;SDS011;10854;45.922;6.716;2024-02-23T10:08:31;1.20;;;1.00;;
21386;SDS011;10854;45.922;6.716;2024-02-23T10:11:00;1.97;;;0.90;;
21386;SDS011;10854;45.922;6.716;2024-02-23T10:13:31;1.60;;;1.30;;
21386;SDS011;10854;45.922;6.716;2024-02-23T10:16:00;1.93;;;1.50;;
21386;SDS011;10854;45.922;6.716;2024-02-23T10:18:31;1.60;;;0.97;;
21386;SDS011;10854;45.922;6.716;2024-02-23T10:21:00;1.57;;;1.20;;
21386;SDS011;10854;45.922;6.716;2024-02-23T10:23:28;3.00;;;1.00;;
21386;SDS011;10854;45.922;6.716;2024-02-23T10:25:57;1.70;;;1.00;;
21386;SDS011;10854;45.922;6.716;2024-02-23T10:28:26;1.77;;;1.10;;
21386;SDS011;10854;45.922;6.716;2024-02-23T10:30:55;1.13;;;1.03;;
21386;SDS011;10854;45.922;6.716;2024-02-23T10:33:24;1.30;;;0.80;;
21386;SDS011;10854;45.922;6.716;2024-02-23T10:35:55;0.50;;;0.50;;
21386;SDS011;10854;45.922;6.716;2024-02-23T10:38:28;0.47;;;0.47;;
21386;SDS011;10854;45.922;6.716;2024-02-23T10:41:00;0.50;;;0.50;;
21386;SDS011;10854;45.922;6.716;2024-02-23T10:43:36;0.53;;;0.50;;
21386;SDS011;10854;45.922;6.716;2024-02-23T10:46:12;1.70;;;0.77;;
21386;SDS011;10854;45.922;6.716;2024-02-23T10:48:41;1.63;;;0.90;;
21386;SDS011;10854;45.922;6.716;2024-02-23T10:51:13;1.03;;;0.60;;
21386;SDS011;10854;45.922;6.716;2024-02-23T10:53:43;0.60;;;0.50;;
21386;SDS011;10854;45.922;6.716;2024-02-23T10:56:14;0.67;;;0.60;;
21386;SDS011;10854;45.922;6.716;2024-02-23T10:58:42;0.60;;;0.60;;
21386;SDS011;10854;45.922;6.716;2024-02-23T11:01:11;0.73;;;0.63;;
21386;SDS011;10854;45.922;6.716;2024-02-23T11:03:43;1.40;;;0.60;;
21386;SDS011;10854;45.922;6.716;2024-02-23T11:06:17;1.03;;;0.50;;
21386;SDS011;10854;45.922;6.716;2024-02-23T11:08:49;1.60;;;0.70;;
21386;SDS011;10854;45.922;6.716;2024-02-23T11:11:19;0.70;;;0.60;;
21386;SDS011;10854;45.922;6.716;2024-02-23T11:13:50;1.00;;;0.80;;
21386;SDS011;10854;45.922;6.716;2024-02-23T11:16:24;0.70;;;0.70;;
21386;SDS011;10854;45.922;6.716;2024-02-23T11:19:03;1.00;;;0.70;;
21386;SDS011;10854;45.922;6.716;2024-02-23T11:21:33;0.70;;;0.70;;
21386;SDS011;10854;45.922;6.716;2024-02-23T11:24:04;2.53;;;0.87;;
21386;SDS011;10854;45.922;6.716;2024-02-23T11:26:33;0.60;;;0.60;;
21386;SDS011;10854;45.922;6.716;2024-02-23T11:29:11;0.70;;;0.70;;
21386;SDS011;10854;45.922;6.716;2024-02-23T11:31:44;0.60;;;0.60;;
21386;SDS011;10854;45.922;6.716;2024-02-23T11:34:21;1.43;;;0.70;;
21386;SDS011;10854;45.922;6.716;2024-02-23T11:36:53;0.63;;;0.60;;
21386;SDS011;10854;45.922;6.716;2024-02-23T11:39:23;0.70;;;0.70;;
21386;SDS011;10854;45.922;6.716;2024-02-23T11:41:53;0.67;;;0.60;;
21386;SDS011;10854;45.922;6.716;2024-02-23T11:44:22;0.70;;;0.50;;
21386;SDS011;10854;45.922;6.716;2024-02-23T11:46:50;1.20;;;0.70;;
21386;SDS011;10854;45.922;6.716;2024-02-23T11:49:19;1.40;;;0.83;;
21386;SDS011;10854;45.922;6.716;2024-02-23T11:51:48;0.73;;;0.63;;
21386;SDS011;10854;45.922;6.716;2024-02-23T11:54:17;1.27;;;0.77;;
21386;SDS011;10854;45.922;6.716;2024-02-23T11:56:49;0.70;;;0.70;;
21386;SDS011;10854;45.922;6.716;2024-02-23T11:59:20;0.80;;;0.80;;
21386;SDS011;10854;45.922;6.716;2024-02-23T12:01:53;0.60;;;0.60;;
21386;SDS011;10854;45.922;6.716;2024-02-23T12:04:23;0.60;;;0.60;;
21386;SDS011;10854;45.922;6.716;2024-02-23T12:06:54;1.40;;;0.63;;
21386;SDS011;10854;45.922;6.716;2024-02-23T12:09:24;1.50;;;0.60;;
21386;SDS011;10854;45.922;6.716;2024-02-23T12:11:53;0.50;;;0.50;;
21386;SDS011;10854;45.922;6.716;2024-02-23T12:14:22;1.07;;;0.60;;
21386;SDS011;10854;45.922;6.716;2024-02-23T12:16:51;0.80;;;0.80;;
21386;SDS011;10854;45.922;6.716;2024-02-23T12:19:20;1.20;;;0.60;;
21386;SDS011;10854;45.922;6.716;2024-02-23T12:21:50;0.80;;;0.50;;
21386;SDS011;10854;45.922;6.716;2024-02-23T12:24:19;0.80;;;0.50;;
21386;SDS011;10854;45.922;6.716;2024-02-23T12:26:53;0.93;;;0.70;;
21386;SDS011;10854;45.922;6.716;2024-02-23T12:29:23;0.80;;;0.70;;
21386;SDS011;10854;45.922;6.716;2024-02-23T12:31:51;2.07;;;1.10;;
21386;SDS011;10854;45.922;6.716;2024-02-23T12:34:33;1.50;;;1.10;;
21386;SDS011;10854;45.922;6.716;2024-02-23T12:37:02;0.70;;;0.70;;
21386;SDS011;10854;45.922;6.716;2024-02-23T12:39:32;2.50;;;1.77;;
21386;SDS011;10854;45.922;6.716;2024-02-23T12:42:01;0.77;;;0.70;;
21386;SDS011;10854;45.922;6.716;2024-02-23T12:44:30;0.80;;;0.70;;
21386;SDS011;10854;45.922;6.716;2024-02-23T12:46:58;0.87;;;0.80;;
21386;SDS011;10854;45.922;6.716;2024-02-23T12:49:27;0.53;;;0.53;;
21386;SDS011;10854;45.922;6.716;2024-02-23T12:51:56;0.87;;;0.80;;
21386;SDS011;10854;45.922;6.716;2024-02-23T12:54:25;0.80;;;0.80;;
21386;SDS011;10854;45.922;6.716;2024-02-23T12:56:54;0.73;;;0.70;;
21386;SDS011;10854;45.922;6.716;2024-02-23T12:59:24;1.00;;;0.83;;
21386;SDS011;10854;45.922;6.716;2024-02-23T13:01:53;0.67;;;0.60;;
21386;SDS011;10854;45.922;6.716;2024-02-23T13:04:21;2.00;;;0.87;;
21386;SDS011;10854;45.922;6.716;2024-02-23T13:06:50;0.97;;;0.77;;
21386;SDS011;10854;45.922;6.716;2024-02-23T13:09:18;0.93;;;0.70;;
21386;SDS011;10854;45.922;6.716;2024-02-23T13:11:47;0.97;;;0.63;;
21386;SDS011;10854;45.922;6.716;2024-02-23T13:14:16;0.63;;;0.40;;
21386;SDS011;10854;45.922;6.716;2024-02-23T13:16:45;1.00;;;0.50;;
21386;SDS011;10854;45.922;6.716;2024-02-23T13:19:14;0.70;;;0.50;;
21386;SDS011;10854;45.922;6.716;2024-02-23T13:21:42;0.77;;;0.67;;
21386;SDS011;10854;45.922;6.716;2024-02-23T13:24:11;0.67;;;0.50;;
21386;SDS011;10854;45.922;6.716;2024-02-23T13:26:41;0.40;;;0.40;;
21386;SDS011;10854;45.922;6.716;2024-02-23T13:29:10;1.10;;;0.50;;
21386;SDS011;10854;45.922;6.716;2024-02-23T13:31:40;1.07;;;0.60;;
21386;SDS011;10854;45.922;6.716;2024-02-23T13:34:09;0.60;;;0.40;;
21386;SDS011;10854;45.922;6.716;2024-02-23T13:36:40;1.13;;;0.50;;
21386;SDS011;10854;45.922;6.716;2024-02-23T13:39:09;0.40;;;0.40;;
21386;SDS011;10854;45.922;6.716;2024-02-23T13:41:38;0.77;;;0.50;;
21386;SDS011;10854;45.922;6.716;2024-02-23T13:44:06;1.63;;;0.67;;
21386;SDS011;10854;45.922;6.716;2024-02-23T13:46:35;1.23;;;1.00;;
21386;SDS011;10854;45.922;6.716;2024-02-23T13:49:07;2.90;;;1.80;;
21386;SDS011;10854;45.922;6.716;2024-02-23T13:51:46;1.00;;;0.90;;
21386;SDS011;10854;45.922;6.716;2024-02-23T13:54:15;1.70;;;0.60;;
21386;SDS011;10854;45.922;6.716;2024-02-23T13:56:44;0.63;;;0.60;;
21386;SDS011;10854;45.922;6.716;2024-02-23T13:59:13;0.60;;;0.50;;
21386;SDS011;10854;45.922;6.716;2024-02-23T14:01:41;0.80;;;0.70;;
21386;SDS011;10854;45.922;6.716;2024-02-23T14:04:10;0.50;;;0.50;;
21386;SDS011;10854;45.922;6.716;2024-02-23T14:06:38;0.60;;;0.60;;
21386;SDS011;10854;45.922;6.716;2024-02-23T14:09:07;0.50;;;0.50;;
21386;SDS011;10854;45.922;6.716;2024-02-23T14:11:38;1.93;;;1.20;;
21386;SDS011;10854;45.922;6.716;2024-02-23T14:14:09;0.50;;;0.50;;
21386;SDS011;10854;45.922;6.716;2024-02-23T14:16:37;0.57;;;0.50;;
21386;SDS011;10854;45.922;6.716;2024-02-23T14:19:08;0.50;;;0.50;;
21386;SDS011;10854;45.922;6.716;2024-02-23T14:21:38;0.47;;;0.47;;
21386;SDS011;10854;45.922;6.716;2024-02-23T14:24:06;0.70;;;0.70;;
21386;SDS011;10854;45.922;6.716;2024-02-23T14:26:35;0.50;;;0.50;;
21386;SDS011;10854;45.922;6.716;2024-02-23T14:29:04;0.60;;;0.60;;
21386;SDS011;10854;45.922;6.716;2024-02-23T14:31:32;1.00;;;0.77;;
21386;SDS011;10854;45.922;6.716;2024-02-23T14:34:02;1.00;;;0.50;;
21386;SDS011;10854;45.922;6.716;2024-02-23T14:36:33;0.70;;;0.70;;
21386;SDS011;10854;45.922;6.716;2024-02-23T14:39:03;1.13;;;0.93;;
21386;SDS011;10854;45.922;6.716;2024-02-23T14:41:35;1.10;;;0.97;;
21386;SDS011;10854;45.922;6.716;2024-02-23T14:44:11;0.90;;;0.67;;
21386;SDS011;10854;45.922;6.716;2024-02-23T14:46:39;1.20;;;0.83;;
21386;SDS011;10854;45.922;6.716;2024-02-23T14:49:09;1.97;;;0.80;;
21386;SDS011;10854;45.922;6.716;2024-02-23T14:51:38;1.40;;;0.80;;